createdAt,value
2024-02-16T00:01:17.878Z,78.74
2024-02-16T00:03:46.014Z,78.79
2024-02-16T00:06:14.397Z,78.84
2024-02-16T00:08:42.714Z,78.83
2024-02-16T00:11:11.319Z,78.74
2024-02-16T00:13:39.498Z,78.85
2024-02-16T00:16:07.801Z,78.86
2024-02-16T00:18:35.857Z,78.90
2024-02-16T00:21:04.569Z,78.83
2024-02-16T00:23:35.285Z,78.88
2024-02-16T00:26:08.502Z,78.90
2024-02-16T00:28:36.646Z,78.75
2024-02-16T00:31:07.180Z,78.82
2024-02-16T00:33:35.708Z,78.90
2024-02-16T00:36:04.289Z,78.88
2024-02-16T00:38:32.405Z,78.80
2024-02-16T00:41:00.842Z,78.75
2024-02-16T00:43:28.868Z,78.70
2024-02-16T00:45:57.452Z,78.72
2024-02-16T00:48:25.794Z,78.70
2024-02-16T00:50:54.042Z,78.69
2024-02-16T00:53:22.163Z,78.55
2024-02-16T00:55:50.133Z,78.57
2024-02-16T00:58:18.207Z,78.66
2024-02-16T01:00:46.376Z,78.68
2024-02-16T01:03:15.119Z,78.70
2024-02-16T01:05:43.260Z,78.62
2024-02-16T01:08:11.318Z,78.60
2024-02-16T01:10:39.400Z,78.67
2024-02-16T01:13:07.462Z,78.64
2024-02-16T01:15:35.562Z,78.70
2024-02-16T01:18:04.338Z,78.70
2024-02-16T01:20:32.900Z,78.72
2024-02-16T01:23:00.982Z,78.68
2024-02-16T01:25:28.991Z,78.75
2024-02-16T01:27:57.008Z,79.03
2024-02-16T01:30:25.111Z,79.14
2024-02-16T01:32:53.664Z,79.20
2024-02-16T01:35:21.790Z,79.30
2024-02-16T01:37:49.867Z,79.31
2024-02-16T01:40:19.008Z,79.31
2024-02-16T01:42:48.701Z,79.29
2024-02-16T01:45:19.571Z,79.54
2024-02-16T01:47:50.927Z,79.64
2024-02-16T01:50:19.469Z,79.59
2024-02-16T01:52:49.195Z,79.51
2024-02-16T01:55:18.308Z,79.72
2024-02-16T01:57:49.154Z,79.79
2024-02-16T02:00:19.425Z,79.85
2024-02-16T02:02:48.601Z,80.00
2024-02-16T02:05:17.329Z,80.09
2024-02-16T02:07:45.585Z,80.09
2024-02-16T02:10:14.399Z,80.05
2024-02-16T02:12:44.093Z,80.10
2024-02-16T02:15:13.463Z,80.07
2024-02-16T02:17:41.655Z,80.11
2024-02-16T02:20:12.920Z,80.07
2024-02-16T02:22:41.071Z,80.25
2024-02-16T02:25:12.274Z,80.21
2024-02-16T02:27:40.438Z,80.19
2024-02-16T02:30:09.942Z,80.30
2024-02-16T02:32:37.951Z,80.34
2024-02-16T02:35:07.231Z,80.24
2024-02-16T02:37:35.173Z,80.35
2024-02-16T02:40:08.019Z,80.25
2024-02-16T02:42:37.398Z,80.24
2024-02-16T02:45:07.148Z,80.38
2024-02-16T02:47:35.216Z,80.35
2024-02-16T02:50:03.358Z,80.37
2024-02-16T02:52:31.536Z,80.39
2024-02-16T02:54:59.493Z,80.41
2024-02-16T02:57:27.618Z,80.47
2024-02-16T03:00:12.425Z,80.52
2024-02-16T03:02:45.387Z,80.63
2024-02-16T03:05:13.496Z,80.76
2024-02-16T03:07:41.497Z,80.96
2024-02-16T03:10:12.810Z,80.98
2024-02-16T03:12:40.902Z,80.97
2024-02-16T03:15:10.132Z,80.89
2024-02-16T03:17:38.315Z,80.85
2024-02-16T03:20:07.034Z,81.00
2024-02-16T03:22:35.007Z,81.12
2024-02-16T03:25:02.943Z,81.18
2024-02-16T03:27:31.048Z,81.22
2024-02-16T03:29:59.139Z,81.27
2024-02-16T03:32:27.745Z,81.29
2024-02-16T03:34:58.441Z,81.20
2024-02-16T03:37:27.119Z,81.29
2024-02-16T03:39:55.094Z,81.29
2024-02-16T03:42:23.145Z,81.39
2024-02-16T03:44:51.606Z,81.52
2024-02-16T03:47:20.126Z,81.54
2024-02-16T03:49:48.327Z,81.63
2024-02-16T03:52:16.471Z,81.66
2024-02-16T03:54:45.139Z,81.76
2024-02-16T03:57:13.605Z,81.78
2024-02-16T03:59:41.697Z,81.93
2024-02-16T04:02:09.676Z,81.91
2024-02-16T04:04:37.937Z,81.87
2024-02-16T04:07:08.126Z,81.93
2024-02-16T04:09:36.320Z,82.00
2024-02-16T04:12:05.175Z,82.05
2024-02-16T04:14:35.034Z,82.04
2024-02-16T04:17:03.206Z,81.93
2024-02-16T04:19:33.386Z,81.93
2024-02-16T04:22:01.478Z,81.95
2024-02-16T04:24:29.604Z,81.98
2024-02-16T04:26:57.912Z,81.94
2024-02-16T04:29:26.030Z,81.99
2024-02-16T04:31:53.996Z,81.99
2024-02-16T04:34:23.250Z,81.91
2024-02-16T04:36:51.521Z,81.97
2024-02-16T04:39:21.074Z,82.09
2024-02-16T04:41:49.466Z,82.02
2024-02-16T04:44:18.841Z,82.09
2024-02-16T04:46:46.821Z,82.14
2024-02-16T04:49:14.798Z,82.14
2024-02-16T04:51:42.950Z,82.15
2024-02-16T04:54:11.154Z,82.21
2024-02-16T04:56:40.730Z,82.24
2024-02-16T04:59:08.689Z,82.23
2024-02-16T05:01:36.666Z,82.25
2024-02-16T05:04:05.397Z,82.22
2024-02-16T05:06:34.078Z,82.24
2024-02-16T05:09:02.067Z,82.29
2024-02-16T05:11:33.544Z,82.29
2024-02-16T05:14:01.439Z,82.32
2024-02-16T05:16:30.292Z,82.18
2024-02-16T05:18:58.177Z,82.27
2024-02-16T05:21:28.393Z,82.32
2024-02-16T05:23:56.722Z,82.30
2024-02-16T05:26:24.868Z,82.43
2024-02-16T05:28:52.833Z,82.52
2024-02-16T05:31:20.896Z,82.71
2024-02-16T05:33:53.582Z,82.62
2024-02-16T05:36:25.918Z,82.65
2024-02-16T05:38:56.325Z,82.69
2024-02-16T05:41:24.449Z,82.90
2024-02-16T05:43:52.348Z,82.93
2024-02-16T05:46:20.293Z,82.98
2024-02-16T05:48:48.454Z,83.03
2024-02-16T05:51:16.861Z,82.99
2024-02-16T05:53:46.749Z,83.01
2024-02-16T05:56:14.710Z,83.11
2024-02-16T05:58:42.708Z,83.11
2024-02-16T06:01:14.010Z,83.10
2024-02-16T06:03:43.422Z,83.04
2024-02-16T06:06:11.914Z,82.94
2024-02-16T06:08:40.721Z,82.87
2024-02-16T06:11:09.474Z,82.95
2024-02-16T06:13:37.548Z,82.91
2024-02-16T06:16:09.787Z,83.08
2024-02-16T06:18:40.122Z,83.02
2024-02-16T06:21:08.462Z,83.00
2024-02-16T06:23:36.494Z,82.96
2024-02-16T06:26:06.887Z,82.88
2024-02-16T06:28:35.036Z,82.76
2024-02-16T06:31:03.204Z,82.84
2024-02-16T06:33:31.286Z,82.77
2024-02-16T06:36:00.032Z,82.77
2024-02-16T06:38:28.027Z,82.66
2024-02-16T06:40:56.070Z,82.65
2024-02-16T06:43:24.122Z,82.56
2024-02-16T06:45:52.213Z,82.56
2024-02-16T06:48:20.376Z,82.51
2024-02-16T06:50:48.542Z,82.44
2024-02-16T06:53:16.527Z,82.39
2024-02-16T06:55:44.890Z,82.33
2024-02-16T06:58:12.897Z,82.24
2024-02-16T07:00:43.685Z,82.23
2024-02-16T07:03:11.943Z,82.10
2024-02-16T07:05:41.369Z,82.04
2024-02-16T07:08:09.674Z,81.98
2024-02-16T07:10:38.191Z,81.92
2024-02-16T07:13:06.229Z,81.68
2024-02-16T07:15:34.501Z,81.62
2024-02-16T07:18:05.573Z,81.56
2024-02-16T07:20:35.958Z,81.40
2024-02-16T07:23:04.187Z,81.31
2024-02-16T07:25:32.208Z,81.23
2024-02-16T07:28:00.208Z,81.06
2024-02-16T07:30:34.055Z,80.89
2024-02-16T07:33:09.015Z,80.64
2024-02-16T07:35:37.240Z,80.48
2024-02-16T07:38:05.895Z,80.37
2024-02-16T07:40:34.039Z,80.20
2024-02-16T07:43:02.507Z,80.00
2024-02-16T07:45:31.124Z,79.97
2024-02-16T07:47:59.362Z,79.74
2024-02-16T07:50:27.760Z,79.61
2024-02-16T07:52:55.727Z,79.58
2024-02-16T07:55:25.696Z,79.28
2024-02-16T07:57:54.180Z,79.18
2024-02-16T08:00:22.437Z,78.92
2024-02-16T08:02:50.514Z,78.65
2024-02-16T08:05:20.817Z,78.57
2024-02-16T08:07:49.117Z,78.64
2024-02-16T08:10:24.046Z,78.41
2024-02-16T08:12:52.377Z,78.04
2024-02-16T08:15:27.361Z,77.48
2024-02-16T08:17:55.837Z,77.26
2024-02-16T08:20:24.210Z,77.30
2024-02-16T08:22:52.282Z,77.26
2024-02-16T08:25:20.211Z,77.01
2024-02-16T08:27:48.311Z,76.71
2024-02-16T08:30:16.606Z,76.95
2024-02-16T08:32:44.705Z,76.33
2024-02-16T08:35:15.883Z,76.37
2024-02-16T08:37:46.477Z,76.42
2024-02-16T08:40:17.310Z,75.63
2024-02-16T08:42:45.470Z,75.41
2024-02-16T08:45:14.177Z,75.39
2024-02-16T08:47:42.726Z,75.05
2024-02-16T08:50:11.714Z,75.31
2024-02-16T08:52:39.743Z,75.00
2024-02-16T08:55:09.107Z,74.19
2024-02-16T08:57:37.226Z,74.45
2024-02-16T09:00:06.369Z,74.46
2024-02-16T09:02:37.888Z,73.89
2024-02-16T09:05:06.283Z,73.82
2024-02-16T09:07:36.354Z,73.50
2024-02-16T09:10:05.696Z,72.99
2024-02-16T09:12:33.793Z,72.02
2024-02-16T09:15:01.990Z,71.44
2024-02-16T09:17:29.887Z,71.68
2024-02-16T09:19:57.772Z,71.88
2024-02-16T09:25:01.268Z,71.81
2024-02-16T09:27:29.561Z,71.18
2024-02-16T09:29:57.710Z,71.70
2024-02-16T09:32:25.925Z,71.44
2024-02-16T09:34:56.062Z,70.78
2024-02-16T09:37:24.146Z,70.33
2024-02-16T09:39:51.970Z,69.95
2024-02-16T09:42:20.018Z,69.43
2024-02-16T09:44:48.808Z,70.13
2024-02-16T09:47:21.032Z,69.75
2024-02-16T09:49:49.910Z,70.02
2024-02-16T09:52:18.112Z,70.49
2024-02-16T09:54:46.226Z,70.29
2024-02-16T09:57:18.167Z,69.98
2024-02-16T09:59:46.953Z,69.96
2024-02-16T10:02:15.136Z,69.36
2024-02-16T10:04:43.305Z,69.14
2024-02-16T10:07:13.445Z,69.27
2024-02-16T10:09:43.170Z,69.54
2024-02-16T10:12:11.765Z,69.45
2024-02-16T10:14:42.651Z,68.74
2024-02-16T10:17:11.159Z,68.88
2024-02-16T10:19:43.545Z,68.62
2024-02-16T10:22:13.805Z,68.11
2024-02-16T10:24:44.077Z,67.94
2024-02-16T10:27:20.098Z,68.00
2024-02-16T10:29:52.929Z,67.82
2024-02-16T10:32:21.179Z,67.84
2024-02-16T10:34:51.627Z,68.01
2024-02-16T10:37:20.243Z,68.65
2024-02-16T10:39:50.771Z,68.77
2024-02-16T10:42:21.749Z,68.57
2024-02-16T10:44:50.900Z,67.73
2024-02-16T10:47:18.968Z,67.85
2024-02-16T10:49:47.354Z,67.40
2024-02-16T10:52:17.161Z,67.69
2024-02-16T10:54:45.527Z,67.49
2024-02-16T10:57:14.029Z,67.18
2024-02-16T10:59:47.182Z,66.89
2024-02-16T11:02:15.525Z,66.79
2024-02-16T11:07:32.589Z,67.21
2024-02-16T11:10:01.152Z,66.35
2024-02-16T11:12:36.378Z,66.63
2024-02-16T11:15:05.095Z,66.41
2024-02-16T11:17:36.765Z,66.49
2024-02-16T11:20:08.362Z,66.28
2024-02-16T11:22:39.753Z,66.09
2024-02-16T11:25:08.843Z,65.57
2024-02-16T11:27:37.665Z,65.85
2024-02-16T11:30:06.902Z,65.90
2024-02-16T11:32:35.949Z,66.04
2024-02-16T11:35:08.959Z,66.00
2024-02-16T11:37:37.336Z,66.22
2024-02-16T11:40:09.990Z,65.67
2024-02-16T11:42:38.669Z,65.90
2024-02-16T11:45:07.905Z,65.45
2024-02-16T11:47:35.995Z,65.37
2024-02-16T11:50:12.849Z,65.16
2024-02-16T11:52:41.562Z,65.32
2024-02-16T11:55:12.069Z,64.98
2024-02-16T11:57:40.941Z,65.32
2024-02-16T12:00:10.166Z,65.33
2024-02-16T12:02:38.760Z,64.94
2024-02-16T12:05:08.837Z,64.82
2024-02-16T12:07:42.059Z,64.44
2024-02-16T12:10:12.841Z,64.79
2024-02-16T12:12:41.095Z,64.67
2024-02-16T12:15:11.521Z,64.62
2024-02-16T12:17:39.542Z,64.84
2024-02-16T12:20:17.866Z,65.05
2024-02-16T12:22:46.045Z,65.14
2024-02-16T12:25:14.121Z,64.66
2024-02-16T12:27:42.269Z,64.37
2024-02-16T12:30:11.212Z,64.64
2024-02-16T12:32:39.273Z,63.88
2024-02-16T12:35:08.543Z,63.97
2024-02-16T12:37:37.012Z,63.78
2024-02-16T12:40:07.620Z,63.72
2024-02-16T12:42:35.726Z,63.76
2024-02-16T12:45:04.306Z,64.17
2024-02-16T12:47:32.409Z,63.73
2024-02-16T12:50:00.637Z,63.67
2024-02-16T12:52:28.873Z,63.67
2024-02-16T12:55:00.536Z,63.30
2024-02-16T12:57:30.757Z,63.86
2024-02-16T12:59:59.042Z,63.54
2024-02-16T13:02:27.128Z,63.65
2024-02-16T13:04:55.822Z,63.28
2024-02-16T13:07:25.501Z,63.34
2024-02-16T13:09:54.122Z,62.55
2024-02-16T13:12:25.194Z,62.54
2024-02-16T13:14:53.344Z,62.80
2024-02-16T13:17:21.814Z,62.41
2024-02-16T13:19:51.867Z,63.19
2024-02-16T13:22:19.905Z,63.40
2024-02-16T13:24:48.040Z,63.34
2024-02-16T13:27:16.158Z,63.51
2024-02-16T13:29:44.368Z,63.73
2024-02-16T13:32:12.290Z,63.46
2024-02-16T13:34:41.246Z,63.37
2024-02-16T13:37:11.392Z,63.24
2024-02-16T13:39:41.846Z,62.82
2024-02-16T13:42:10.295Z,62.81
2024-02-16T13:44:39.272Z,62.84
2024-02-16T13:47:07.654Z,63.20
2024-02-16T13:49:36.032Z,63.15
2024-02-16T13:52:05.112Z,62.76
2024-02-16T13:54:33.192Z,62.92
2024-02-16T13:57:01.399Z,63.46
2024-02-16T13:59:31.062Z,63.55
2024-02-16T14:02:00.664Z,63.60
2024-02-16T14:04:29.807Z,63.73
2024-02-16T14:06:59.390Z,63.59
2024-02-16T14:09:33.604Z,64.02
2024-02-16T14:12:02.756Z,63.69
2024-02-16T14:14:37.123Z,63.86
2024-02-16T14:17:07.002Z,63.85
2024-02-16T14:19:39.660Z,63.98
2024-02-16T14:22:08.642Z,64.22
2024-02-16T14:24:36.946Z,63.95
2024-02-16T14:27:06.231Z,64.07
2024-02-16T14:29:34.360Z,64.39
2024-02-16T14:32:02.509Z,64.54
2024-02-16T14:34:30.744Z,64.39
2024-02-16T14:36:58.931Z,64.30
2024-02-16T14:39:27.007Z,64.44
2024-02-16T14:41:55.142Z,64.74
2024-02-16T14:44:25.725Z,64.69
2024-02-16T14:46:54.414Z,64.84
2024-02-16T14:49:23.276Z,65.02
2024-02-16T14:51:54.274Z,65.20
2024-02-16T14:54:24.477Z,65.28
2024-02-16T14:56:55.475Z,65.23
2024-02-16T14:59:24.175Z,65.60
2024-02-16T15:01:53.303Z,65.75
2024-02-16T15:04:21.462Z,65.99
2024-02-16T15:06:49.681Z,65.83
2024-02-16T15:09:17.892Z,65.68
2024-02-16T15:11:46.262Z,65.74
2024-02-16T15:14:16.825Z,65.91
2024-02-16T15:16:46.297Z,66.22
2024-02-16T15:19:14.637Z,66.27
2024-02-16T15:21:42.786Z,66.48
2024-02-16T15:24:10.860Z,66.40
2024-02-16T15:26:38.882Z,66.37
2024-02-16T15:29:06.849Z,66.42
2024-02-16T15:31:34.727Z,66.39
2024-02-16T15:34:02.870Z,66.38
2024-02-16T15:36:31.225Z,66.80
2024-02-16T15:38:59.394Z,66.74
2024-02-16T15:41:27.336Z,66.99
2024-02-16T15:43:55.892Z,67.17
2024-02-16T15:46:23.857Z,67.39
2024-02-16T15:48:53.103Z,67.62
2024-02-16T15:51:21.348Z,67.81
2024-02-16T15:53:49.258Z,67.96
2024-02-16T15:56:17.300Z,68.42
2024-02-16T15:58:45.543Z,68.39
2024-02-16T16:01:13.620Z,68.47
2024-02-16T16:03:41.865Z,68.73
2024-02-16T16:06:11.501Z,69.19
2024-02-16T16:08:42.636Z,69.25
2024-02-16T16:11:10.657Z,69.37
2024-02-16T16:13:38.885Z,69.45
2024-02-16T16:16:07.375Z,69.87
2024-02-16T16:18:36.490Z,69.85
2024-02-16T16:21:06.110Z,69.94
2024-02-16T16:23:37.413Z,70.14
2024-02-16T16:26:05.764Z,70.09
2024-02-16T16:28:34.061Z,70.38
2024-02-16T16:31:02.046Z,70.84
2024-02-16T16:33:30.253Z,70.77
2024-02-16T16:35:59.097Z,70.92
2024-02-16T16:38:27.290Z,71.05
2024-02-16T16:40:55.960Z,71.26
2024-02-16T16:43:25.054Z,71.29
2024-02-16T16:45:53.014Z,71.35
2024-02-16T16:48:21.327Z,71.33
2024-02-16T16:50:49.874Z,71.72
2024-02-16T16:53:18.805Z,71.87
2024-02-16T16:55:47.449Z,72.02
2024-02-16T16:58:15.428Z,72.26
2024-02-16T17:00:43.479Z,72.40
2024-02-16T17:03:11.674Z,72.35
2024-02-16T17:05:39.867Z,72.65
2024-02-16T17:08:08.004Z,72.73
2024-02-16T17:10:35.976Z,72.81
2024-02-16T17:13:04.244Z,72.78
2024-02-16T17:15:34.126Z,72.76
2024-02-16T17:18:02.496Z,72.77
2024-02-16T17:20:30.913Z,72.76
2024-02-16T17:23:00.009Z,72.81
2024-02-16T17:25:28.220Z,72.95
2024-02-16T17:27:56.306Z,73.28
2024-02-16T17:30:24.890Z,73.23
2024-02-16T17:32:53.235Z,73.61
2024-02-16T17:35:22.318Z,74.07
2024-02-16T17:37:54.210Z,74.02
2024-02-16T17:40:22.350Z,74.14
2024-02-16T17:42:50.372Z,74.31
2024-02-16T17:45:19.872Z,73.88
2024-02-16T17:47:47.882Z,74.53
2024-02-16T17:50:16.304Z,74.35
2024-02-16T17:52:44.283Z,74.68
2024-02-16T17:55:12.335Z,75.14
2024-02-16T17:57:41.183Z,74.59
2024-02-16T18:00:09.960Z,74.62
2024-02-16T18:02:41.211Z,74.62
2024-02-16T18:05:13.048Z,74.81
2024-02-16T18:07:41.514Z,74.97
2024-02-16T18:10:10.239Z,75.16
2024-02-16T18:12:38.252Z,75.18
2024-02-16T18:15:07.224Z,74.98
2024-02-16T18:17:35.660Z,75.39
2024-02-16T18:20:04.373Z,75.19
2024-02-16T18:22:32.453Z,75.83
2024-02-16T18:25:00.453Z,76.10
2024-02-16T18:27:28.526Z,76.20
2024-02-16T18:29:56.726Z,75.74
2024-02-16T18:32:24.734Z,75.89
2024-02-16T18:34:52.806Z,76.36
2024-02-16T18:37:21.399Z,76.68
2024-02-16T18:39:49.406Z,76.38
2024-02-16T18:42:17.505Z,76.30
2024-02-16T18:44:45.936Z,76.69
2024-02-16T18:47:13.901Z,76.62
2024-02-16T18:49:42.123Z,77.00
2024-02-16T18:52:10.781Z,77.13
2024-02-16T18:54:38.772Z,76.87
2024-02-16T18:57:08.070Z,76.83
2024-02-16T18:59:36.277Z,77.38
2024-02-16T19:02:04.771Z,77.35
2024-02-16T19:04:33.724Z,77.13
2024-02-16T19:07:02.109Z,77.35
2024-02-16T19:09:30.823Z,77.59
2024-02-16T19:11:58.791Z,77.75
2024-02-16T19:14:27.045Z,77.86
2024-02-16T19:16:58.219Z,77.71
2024-02-16T19:19:29.216Z,77.79
2024-02-16T19:21:58.288Z,77.74
2024-02-16T19:24:33.389Z,77.66
2024-02-16T19:27:08.074Z,77.53
2024-02-16T19:29:36.873Z,77.79
2024-02-16T19:32:05.820Z,78.22
2024-02-16T19:34:35.727Z,78.17
2024-02-16T19:37:04.365Z,78.16
2024-02-16T19:39:32.801Z,77.91
2024-02-16T19:42:01.096Z,78.17
2024-02-16T19:44:32.874Z,78.07
2024-02-16T19:47:01.007Z,77.99
2024-02-16T19:49:29.679Z,78.22
2024-02-16T19:51:57.727Z,78.07
2024-02-16T19:54:25.852Z,77.86
2024-02-16T19:56:56.515Z,78.00
2024-02-16T19:59:24.579Z,78.07
2024-02-16T20:01:52.900Z,78.21
2024-02-16T20:04:21.031Z,78.39
2024-02-16T20:06:50.270Z,78.27
2024-02-16T20:09:18.426Z,78.26
2024-02-16T20:11:48.406Z,78.23
2024-02-16T20:14:16.625Z,78.08
2024-02-16T20:16:44.691Z,78.03
2024-02-16T20:19:12.801Z,78.04
2024-02-16T20:21:41.004Z,78.01
2024-02-16T20:24:09.240Z,77.98
2024-02-16T20:26:37.450Z,77.95
2024-02-16T20:29:05.513Z,78.03
2024-02-16T20:31:34.030Z,78.07
2024-02-16T20:34:02.237Z,78.16
2024-02-16T20:36:30.401Z,78.14
2024-02-16T20:39:03.674Z,78.11
2024-02-16T20:41:31.934Z,78.27
2024-02-16T20:43:59.987Z,78.51
2024-02-16T20:46:28.358Z,78.44
2024-02-16T20:48:56.524Z,78.49
2024-02-16T20:51:24.673Z,78.55
2024-02-16T20:53:52.778Z,78.73
2024-02-16T20:56:20.738Z,78.64
2024-02-16T20:58:48.632Z,78.47
2024-02-16T21:01:16.832Z,78.35
2024-02-16T21:03:45.032Z,78.59
2024-02-16T21:06:16.007Z,78.45
2024-02-16T21:08:46.775Z,78.61
2024-02-16T21:11:17.444Z,78.43
2024-02-16T21:13:45.730Z,78.52
2024-02-16T21:16:14.921Z,78.73
2024-02-16T21:18:42.947Z,78.80
2024-02-16T21:21:11.199Z,78.56
2024-02-16T21:23:39.137Z,78.57
2024-02-16T21:26:07.045Z,78.53
2024-02-16T21:28:37.481Z,78.77
2024-02-16T21:31:05.790Z,78.49
2024-02-16T21:33:37.051Z,78.61
2024-02-16T21:36:11.757Z,78.82
2024-02-16T21:38:42.306Z,78.68
2024-02-16T21:41:16.639Z,78.57
2024-02-16T21:43:48.403Z,78.87
2024-02-16T21:46:30.058Z,78.75
2024-02-16T21:49:01.450Z,78.79
2024-02-16T21:51:35.450Z,78.83
2024-02-16T21:54:09.093Z,78.73
2024-02-16T21:56:37.095Z,78.84
2024-02-16T21:59:05.705Z,79.09
2024-02-16T22:01:33.938Z,79.07
2024-02-16T22:04:04.347Z,79.03
2024-02-16T22:06:33.420Z,79.05
2024-02-16T22:09:01.910Z,79.16
2024-02-16T22:11:30.098Z,79.09
2024-02-16T22:13:58.206Z,79.32
2024-02-16T22:16:26.284Z,79.28
2024-02-16T22:18:54.297Z,79.29
2024-02-16T22:21:30.430Z,79.40
2024-02-16T22:24:05.773Z,79.37
2024-02-16T22:26:36.183Z,79.57
2024-02-16T22:29:04.255Z,79.59
2024-02-16T22:31:36.396Z,79.74
2024-02-16T22:34:10.453Z,79.96
2024-02-16T22:36:38.898Z,79.74
2024-02-16T22:39:07.433Z,79.87
2024-02-16T22:41:35.344Z,79.92
2024-02-16T22:44:04.125Z,79.65
2024-02-16T22:46:32.100Z,79.48
2024-02-16T22:49:00.254Z,79.67
2024-02-16T22:51:36.620Z,79.83
2024-02-16T22:54:08.002Z,79.96
2024-02-16T22:56:36.089Z,80.04
2024-02-16T22:59:04.040Z,80.26
2024-02-16T23:01:31.989Z,79.87
2024-02-16T23:04:00.014Z,79.89
2024-02-16T23:06:28.291Z,79.95
2024-02-16T23:08:57.473Z,79.81
2024-02-16T23:11:28.000Z,79.92
2024-02-16T23:13:55.956Z,79.87
2024-02-16T23:16:26.795Z,80.00
2024-02-16T23:18:54.851Z,80.09
2024-02-16T23:21:22.942Z,80.13
2024-02-16T23:23:50.903Z,80.22
2024-02-16T23:26:19.146Z,80.02
2024-02-16T23:28:47.117Z,79.81
2024-02-16T23:31:14.958Z,79.78
2024-02-16T23:33:43.162Z,79.71
2024-02-16T23:36:11.228Z,79.84
2024-02-16T23:38:39.146Z,79.99
2024-02-16T23:41:07.632Z,79.97
2024-02-16T23:43:35.568Z,79.66
2024-02-16T23:46:06.500Z,79.69
2024-02-16T23:48:34.677Z,79.74
2024-02-16T23:51:02.899Z,79.87
2024-02-16T23:53:30.914Z,79.92
2024-02-16T23:55:58.785Z,79.82
2024-02-16T23:58:29.068Z,79.76
